createdAt,value
2023-02-15T00:00:49.787Z,5.99
2023-02-15T00:01:48.760Z,5.98
2023-02-15T00:02:48.767Z,5.98
2023-02-15T00:03:48.742Z,5.90
2023-02-15T00:04:48.745Z,5.94
2023-02-15T00:05:49.746Z,5.94
2023-02-15T00:06:49.692Z,6.08
2023-02-15T00:07:48.681Z,6.08
2023-02-15T00:08:48.677Z,5.90
2023-02-15T00:09:49.671Z,6.07
2023-02-15T00:10:48.674Z,6.05
2023-02-15T00:11:48.669Z,6.22
2023-02-15T00:12:49.618Z,6.11
2023-02-15T00:13:48.621Z,6.11
2023-02-15T00:14:48.612Z,6.12
2023-02-15T00:15:49.608Z,6.12
2023-02-15T00:16:48.664Z,6.17
2023-02-15T00:17:48.609Z,6.20
2023-02-15T00:18:49.565Z,6.24
2023-02-15T00:19:48.590Z,6.24
2023-02-15T00:20:48.559Z,6.26
2023-02-15T00:21:48.529Z,6.28
2023-02-15T00:22:48.597Z,6.17
2023-02-15T00:23:49.507Z,6.12
2023-02-15T00:24:48.490Z,6.30
2023-02-15T00:25:48.491Z,6.26
2023-02-15T00:26:48.477Z,6.28
2023-02-15T00:27:48.471Z,6.19
2023-02-15T00:28:49.492Z,6.22
2023-02-15T00:29:48.465Z,6.20
2023-02-15T00:30:48.702Z,6.19
2023-02-15T00:31:48.448Z,6.12
2023-02-15T00:32:49.437Z,6.08
2023-02-15T00:33:48.391Z,6.12
2023-02-15T00:34:48.389Z,6.11
2023-02-15T00:35:48.396Z,6.08
2023-02-15T00:36:48.418Z,6.07
2023-02-15T00:37:48.407Z,6.07
2023-02-15T00:38:49.361Z,6.04
2023-02-15T00:39:48.342Z,6.07
2023-02-15T00:40:49.326Z,6.04
2023-02-15T00:41:48.312Z,6.07
2023-02-15T00:42:48.309Z,6.08
2023-02-15T00:43:48.397Z,6.04
2023-02-15T00:44:48.326Z,6.02
2023-02-15T00:45:48.292Z,6.07
2023-02-15T00:46:48.811Z,6.11
2023-02-15T00:47:48.240Z,6.09
2023-02-15T00:48:48.234Z,6.05
2023-02-15T00:49:48.254Z,6.05
2023-02-15T00:50:49.265Z,6.07
2023-02-15T00:51:49.225Z,6.08
2023-02-15T00:52:48.221Z,6.05
2023-02-15T00:53:48.186Z,6.04
2023-02-15T00:54:48.185Z,6.05
2023-02-15T00:55:48.184Z,5.94
2023-02-15T00:56:48.231Z,5.99
2023-02-15T00:57:48.138Z,5.87
2023-02-15T00:58:48.147Z,5.87
2023-02-15T00:59:48.152Z,5.87
2023-02-15T01:00:48.157Z,5.83
2023-02-15T01:01:49.127Z,5.80
2023-02-15T01:02:49.123Z,5.76
2023-02-15T01:03:48.091Z,5.69
2023-02-15T01:04:48.110Z,5.65
2023-02-15T01:05:48.057Z,5.64
2023-02-15T01:06:49.074Z,5.61
2023-02-15T01:07:48.123Z,5.53
2023-02-15T01:08:48.022Z,5.50
2023-02-15T01:09:48.021Z,5.51
2023-02-15T01:10:48.031Z,5.50
2023-02-15T01:11:48.038Z,5.50
2023-02-15T01:12:49.058Z,5.53
2023-02-15T01:13:47.984Z,5.41
2023-02-15T01:14:48.002Z,5.38
2023-02-15T01:15:47.989Z,5.39
2023-02-15T01:16:47.960Z,5.50
2023-02-15T01:17:47.966Z,5.53
2023-02-15T01:18:47.943Z,5.50
2023-02-15T01:19:47.975Z,5.36
2023-02-15T01:20:48.904Z,5.47
2023-02-15T01:21:48.908Z,5.26
2023-02-15T01:22:47.904Z,5.28
2023-02-15T01:23:47.902Z,5.26
2023-02-15T01:24:47.863Z,5.14
2023-02-15T01:25:47.977Z,5.17
2023-02-15T01:26:47.858Z,5.18
2023-02-15T01:27:48.846Z,5.21
2023-02-15T01:28:47.841Z,5.17
2023-02-15T01:29:48.940Z,5.20
2023-02-15T01:30:47.969Z,5.15
2023-02-15T01:31:47.978Z,5.23
2023-02-15T01:32:47.807Z,5.21
2023-02-15T01:33:48.801Z,5.26
2023-02-15T01:34:47.778Z,5.26
2023-02-15T01:35:47.738Z,5.26
2023-02-15T01:36:48.753Z,5.33
2023-02-15T01:37:48.754Z,5.38
2023-02-15T01:38:47.716Z,5.44
2023-02-15T01:39:47.730Z,5.51
2023-02-15T01:40:48.683Z,5.50
2023-02-15T01:41:48.690Z,5.51
2023-02-15T01:42:47.666Z,5.41
2023-02-15T01:43:47.664Z,5.47
2023-02-15T01:44:48.660Z,5.46
2023-02-15T01:45:48.684Z,5.44
2023-02-15T01:46:47.675Z,5.47
2023-02-15T01:47:48.629Z,5.51
2023-02-15T01:48:47.613Z,5.51
2023-02-15T01:49:47.598Z,5.51
2023-02-15T01:50:47.580Z,5.53
2023-02-15T01:51:47.594Z,5.44
2023-02-15T01:52:47.586Z,5.54
2023-02-15T01:53:47.548Z,5.47
2023-02-15T01:54:47.549Z,5.51
2023-02-15T01:55:55.172Z,5.66
2023-02-15T01:56:47.515Z,5.68
2023-02-15T01:57:47.517Z,5.66
2023-02-15T01:58:47.525Z,5.59
2023-02-15T01:59:48.495Z,5.68
2023-02-15T02:00:47.488Z,5.56
2023-02-15T02:01:47.514Z,5.56
2023-02-15T02:02:48.501Z,5.59
2023-02-15T02:03:48.509Z,5.62
2023-02-15T02:04:47.418Z,5.59
2023-02-15T02:05:47.403Z,5.50
2023-02-15T02:06:47.393Z,5.54
2023-02-15T02:07:48.416Z,5.53
2023-02-15T02:08:47.391Z,5.59
2023-02-15T02:09:47.389Z,5.54
2023-02-15T02:10:47.363Z,5.53
2023-02-15T02:11:47.360Z,5.57
2023-02-15T02:12:47.331Z,5.61
2023-02-15T02:13:47.322Z,5.61
2023-02-15T02:14:47.380Z,5.57
2023-02-15T02:15:47.337Z,5.54
2023-02-15T02:16:48.300Z,5.59
2023-02-15T02:17:48.295Z,5.54
2023-02-15T02:18:47.286Z,5.50
2023-02-15T02:19:47.262Z,5.41
2023-02-15T02:20:48.234Z,5.47
2023-02-15T02:21:48.246Z,5.38
2023-02-15T02:22:47.224Z,5.41
2023-02-15T02:23:47.232Z,5.43
2023-02-15T02:24:47.222Z,5.44
2023-02-15T02:25:47.185Z,5.50
2023-02-15T02:26:47.199Z,5.48
2023-02-15T02:27:47.217Z,5.54
2023-02-15T02:28:47.178Z,5.50
2023-02-15T02:29:47.157Z,5.46
2023-02-15T02:30:47.280Z,5.51
2023-02-15T02:31:48.254Z,5.47
2023-02-15T02:32:48.119Z,5.39
2023-02-15T02:33:48.113Z,5.43
2023-02-15T02:34:47.084Z,5.39
2023-02-15T02:35:47.073Z,5.33
2023-02-15T02:36:47.073Z,5.28
2023-02-15T02:37:47.090Z,5.23
2023-02-15T02:38:47.076Z,5.15
2023-02-15T02:39:47.049Z,5.02
2023-02-15T02:40:47.050Z,4.97
2023-02-15T02:41:47.046Z,4.82
2023-02-15T02:42:47.002Z,4.80
2023-02-15T02:43:47.050Z,4.80
2023-02-15T02:44:47.012Z,4.75
2023-02-15T02:45:46.973Z,4.93
2023-02-15T02:46:48.074Z,4.80
2023-02-15T02:47:46.966Z,4.93
2023-02-15T02:48:46.946Z,4.84
2023-02-15T02:49:46.946Z,4.89
2023-02-15T02:50:46.964Z,4.93
2023-02-15T02:51:47.925Z,4.90
2023-02-15T02:52:46.922Z,4.97
2023-02-15T02:53:46.905Z,5.02
2023-02-15T02:54:47.890Z,5.02
2023-02-15T02:55:46.884Z,4.97
2023-02-15T02:56:46.879Z,5.07
2023-02-15T02:57:46.841Z,5.04
2023-02-15T02:58:47.848Z,5.07
2023-02-15T02:59:46.864Z,4.99
2023-02-15T03:00:46.847Z,5.08
2023-02-15T03:01:46.873Z,5.04
2023-02-15T03:02:47.855Z,5.05
2023-02-15T03:03:46.773Z,5.08
2023-02-15T03:04:46.780Z,5.08
2023-02-15T03:05:47.777Z,5.07
2023-02-15T03:06:46.735Z,5.07
2023-02-15T03:07:46.749Z,5.11
2023-02-15T03:08:46.842Z,5.07
2023-02-15T03:09:46.698Z,5.04
2023-02-15T03:10:46.723Z,5.04
2023-02-15T03:11:46.700Z,5.10
2023-02-15T03:12:46.723Z,5.10
2023-02-15T03:13:46.682Z,5.04
2023-02-15T03:14:47.301Z,5.08
2023-02-15T03:15:46.716Z,5.12
2023-02-15T03:16:46.645Z,5.10
2023-02-15T03:17:46.636Z,5.12
2023-02-15T03:18:46.642Z,5.11
2023-02-15T03:19:47.605Z,5.17
2023-02-15T03:20:47.628Z,5.11
2023-02-15T03:21:46.592Z,5.14
2023-02-15T03:22:46.578Z,5.05
2023-02-15T03:23:46.588Z,4.96
2023-02-15T03:24:46.580Z,5.10
2023-02-15T03:25:46.555Z,5.08
2023-02-15T03:26:46.558Z,5.04
2023-02-15T03:27:46.550Z,5.11
2023-02-15T03:28:46.502Z,5.08
2023-02-15T03:29:47.506Z,5.15
2023-02-15T03:30:46.493Z,5.11
2023-02-15T03:31:46.662Z,5.10
2023-02-15T03:32:46.519Z,5.11
2023-02-15T03:33:46.528Z,5.17
2023-02-15T03:34:46.452Z,5.10
2023-02-15T03:35:46.433Z,5.10
2023-02-15T03:36:46.432Z,5.12
2023-02-15T03:37:46.434Z,5.10
2023-02-15T03:38:46.392Z,5.12
2023-02-15T03:39:46.451Z,5.07
2023-02-15T03:40:47.275Z,5.00
2023-02-15T03:41:46.372Z,5.05
2023-02-15T03:42:46.368Z,5.08
2023-02-15T03:43:47.253Z,4.99
2023-02-15T03:44:46.342Z,4.97
2023-02-15T03:45:47.352Z,4.97
2023-02-15T03:46:46.446Z,4.92
2023-02-15T03:47:46.399Z,4.92
2023-02-15T03:48:46.310Z,4.87
2023-02-15T03:49:46.317Z,4.82
2023-02-15T03:50:46.270Z,4.99
2023-02-15T03:51:46.267Z,4.84
2023-02-15T03:52:47.350Z,4.93
2023-02-15T03:53:46.259Z,4.90
2023-02-15T03:54:46.251Z,4.94
2023-02-15T03:55:46.213Z,4.97
2023-02-15T03:56:46.207Z,4.96
2023-02-15T03:57:46.236Z,4.90
2023-02-15T03:58:46.183Z,4.89
2023-02-15T03:59:46.181Z,4.94
2023-02-15T04:00:47.221Z,4.80
2023-02-15T04:01:46.185Z,4.89
2023-02-15T04:02:46.145Z,4.80
2023-02-15T04:03:46.155Z,4.80
2023-02-15T04:04:46.141Z,4.86
2023-02-15T04:05:46.112Z,4.84
2023-02-15T04:06:46.111Z,4.82
2023-02-15T04:07:47.110Z,4.92
2023-02-15T04:08:47.076Z,4.94
2023-02-15T04:09:46.089Z,4.97
2023-02-15T04:10:46.094Z,4.92
2023-02-15T04:11:47.046Z,4.90
2023-02-15T04:12:46.053Z,4.89
2023-02-15T04:13:46.059Z,4.89
2023-02-15T04:14:46.032Z,4.89
2023-02-15T04:15:46.007Z,4.86
2023-02-15T04:16:46.834Z,4.77
2023-02-15T04:17:45.985Z,4.82
2023-02-15T04:18:45.976Z,4.71
2023-02-15T04:19:45.981Z,4.66
2023-02-15T04:20:45.938Z,4.60
2023-02-15T04:21:46.022Z,4.55
2023-02-15T04:22:45.923Z,4.52
2023-02-15T04:23:46.909Z,4.41
2023-02-15T04:24:45.915Z,4.44
2023-02-15T04:25:45.889Z,4.42
2023-02-15T04:26:45.903Z,4.49
2023-02-15T04:27:46.865Z,4.45
2023-02-15T04:28:45.852Z,4.45
2023-02-15T04:29:45.872Z,4.44
2023-02-15T04:30:45.828Z,4.53
2023-02-15T04:31:46.999Z,4.58
2023-02-15T04:32:46.838Z,4.58
2023-02-15T04:33:46.809Z,4.60
2023-02-15T04:34:45.775Z,4.62
2023-02-15T04:35:45.811Z,4.60
2023-02-15T04:36:45.795Z,4.62
2023-02-15T04:37:46.778Z,4.63
2023-02-15T04:38:45.741Z,4.67
2023-02-15T04:39:45.728Z,4.63
2023-02-15T04:40:45.720Z,4.67
2023-02-15T04:41:45.736Z,4.70
2023-02-15T04:42:45.694Z,4.71
2023-02-15T04:43:46.216Z,4.66
2023-02-15T04:44:45.684Z,4.63
2023-02-15T04:45:45.673Z,4.59
2023-02-15T04:46:46.678Z,4.52
2023-02-15T04:47:45.693Z,4.44
2023-02-15T04:48:45.636Z,4.48
2023-02-15T04:49:45.659Z,4.53
2023-02-15T04:50:45.612Z,4.44
2023-02-15T04:51:46.632Z,4.44
2023-02-15T04:52:45.598Z,4.55
2023-02-15T04:53:45.635Z,4.59
2023-02-15T04:54:45.608Z,4.52
2023-02-15T04:55:45.553Z,4.50
2023-02-15T04:56:45.554Z,4.41
2023-02-15T04:57:45.541Z,4.42
2023-02-15T04:58:46.525Z,4.41
2023-02-15T04:59:45.546Z,4.55
2023-02-15T05:00:45.566Z,4.48
2023-02-15T05:01:45.499Z,4.48
2023-02-15T05:02:46.477Z,4.49
2023-02-15T05:03:45.468Z,4.50
2023-02-15T05:04:45.490Z,4.52
2023-02-15T05:05:45.439Z,4.53
2023-02-15T05:06:45.490Z,4.58
2023-02-15T05:07:46.464Z,4.63
2023-02-15T05:08:45.419Z,4.60
2023-02-15T05:09:45.402Z,4.66
2023-02-15T05:10:45.398Z,4.62
2023-02-15T05:11:45.400Z,4.66
2023-02-15T05:12:45.408Z,4.62
2023-02-15T05:13:45.377Z,4.58
2023-02-15T05:14:45.372Z,4.52
2023-02-15T05:15:45.335Z,4.52
2023-02-15T05:16:46.428Z,4.50
2023-02-15T05:17:45.303Z,4.59
2023-02-15T05:18:46.317Z,4.63
2023-02-15T05:19:45.328Z,4.60
2023-02-15T05:20:46.312Z,4.66
2023-02-15T05:21:45.274Z,4.58
2023-02-15T05:22:45.264Z,4.58
2023-02-15T05:23:45.304Z,4.56
2023-02-15T05:24:45.240Z,4.59
2023-02-15T05:25:45.308Z,4.56
2023-02-15T05:26:45.268Z,4.56
2023-02-15T05:27:45.220Z,4.52
2023-02-15T05:28:46.196Z,4.48
2023-02-15T05:29:45.190Z,4.44
2023-02-15T05:30:45.420Z,4.38
2023-02-15T05:31:45.532Z,4.37
2023-02-15T05:32:45.360Z,4.37
2023-02-15T05:33:45.180Z,4.40
2023-02-15T05:34:46.138Z,4.42
2023-02-15T05:35:45.124Z,4.38
2023-02-15T05:36:45.120Z,4.41
2023-02-15T05:37:45.138Z,4.50
2023-02-15T05:38:45.132Z,4.56
2023-02-15T05:39:45.171Z,4.45
2023-02-15T05:40:45.120Z,4.40
2023-02-15T05:41:46.053Z,4.40
2023-02-15T05:42:45.139Z,4.41
2023-02-15T05:43:45.058Z,4.37
2023-02-15T05:44:45.049Z,4.41
2023-02-15T05:45:45.140Z,4.40
2023-02-15T05:46:45.007Z,4.37
2023-02-15T05:47:46.030Z,4.50
2023-02-15T05:48:45.054Z,4.45
2023-02-15T05:49:44.983Z,4.40
2023-02-15T05:50:44.979Z,4.38
2023-02-15T05:51:44.954Z,4.37
2023-02-15T05:52:45.937Z,4.32
2023-02-15T05:53:44.950Z,4.16
2023-02-15T05:54:45.917Z,4.28
2023-02-15T05:55:44.931Z,4.16
2023-02-15T05:56:44.925Z,4.17
2023-02-15T05:57:44.898Z,4.14
2023-02-15T05:58:44.862Z,4.19
2023-02-15T05:59:44.862Z,4.06
2023-02-15T06:00:44.863Z,4.19
2023-02-15T06:01:44.872Z,4.16
2023-02-15T06:02:45.927Z,4.20
2023-02-15T06:03:44.898Z,4.20
2023-02-15T06:04:44.798Z,4.13
2023-02-15T06:05:44.860Z,4.31
2023-02-15T06:06:44.796Z,4.32
2023-02-15T06:07:44.782Z,4.31
2023-02-15T06:08:44.785Z,4.20
2023-02-15T06:09:44.783Z,4.30
2023-02-15T06:10:45.745Z,4.38
2023-02-15T06:11:44.762Z,4.34
2023-02-15T06:12:44.733Z,4.41
2023-02-15T06:13:44.704Z,4.40
2023-02-15T06:14:44.707Z,4.41
2023-02-15T06:15:44.816Z,4.37
2023-02-15T06:16:44.769Z,4.38
2023-02-15T06:17:44.659Z,4.42
2023-02-15T06:18:44.665Z,4.53
2023-02-15T06:19:44.646Z,4.40
2023-02-15T06:20:44.671Z,4.40
2023-02-15T06:21:44.649Z,4.37
2023-02-15T06:22:44.651Z,4.45
2023-02-15T06:23:45.590Z,4.45
2023-02-15T06:24:45.607Z,4.31
2023-02-15T06:25:44.578Z,4.32
2023-02-15T06:26:44.608Z,4.14
2023-02-15T06:27:44.612Z,4.14
2023-02-15T06:28:44.552Z,4.19
2023-02-15T06:29:44.545Z,4.19
2023-02-15T06:30:44.566Z,4.16
2023-02-15T06:31:44.693Z,4.19
2023-02-15T06:32:44.515Z,4.23
2023-02-15T06:33:45.175Z,4.19
2023-02-15T06:34:46.591Z,4.12
2023-02-15T06:35:44.467Z,4.04
2023-02-15T06:36:44.468Z,4.17
2023-02-15T06:37:45.446Z,4.01
2023-02-15T06:38:45.445Z,4.01
2023-02-15T06:39:44.447Z,4.17
2023-02-15T06:40:44.418Z,4.17
2023-02-15T06:41:44.429Z,4.13
2023-02-15T06:42:45.406Z,4.17
2023-02-15T06:43:44.417Z,4.17
2023-02-15T06:44:44.391Z,4.19
2023-02-15T06:45:45.381Z,4.12
2023-02-15T06:46:44.436Z,4.10
2023-02-15T06:47:44.356Z,4.17
2023-02-15T06:48:44.339Z,4.23
2023-02-15T06:49:44.319Z,4.24
2023-02-15T06:50:44.300Z,4.34
2023-02-15T06:51:44.299Z,4.28
2023-02-15T06:52:44.306Z,4.32
2023-02-15T06:53:44.283Z,4.16
2023-02-15T06:54:44.270Z,4.13
2023-02-15T06:55:44.258Z,4.05
2023-02-15T06:56:45.243Z,4.01
2023-02-15T06:57:44.238Z,4.02
2023-02-15T06:58:44.237Z,3.87
2023-02-15T06:59:44.241Z,3.88
2023-02-15T07:00:44.225Z,3.83
2023-02-15T07:01:44.252Z,3.83
2023-02-15T07:02:44.196Z,3.80
2023-02-15T07:03:45.155Z,3.80
2023-02-15T07:04:44.190Z,3.80
2023-02-15T07:05:44.129Z,3.87
2023-02-15T07:06:44.123Z,3.87
2023-02-15T07:07:44.139Z,3.91
2023-02-15T07:08:45.096Z,3.94
2023-02-15T07:09:45.115Z,3.81
2023-02-15T07:10:44.093Z,3.86
2023-02-15T07:11:44.073Z,3.96
2023-02-15T07:12:44.065Z,4.01
2023-02-15T07:13:44.060Z,3.94
2023-02-15T07:14:44.054Z,3.96
2023-02-15T07:15:44.076Z,4.02
2023-02-15T07:16:44.040Z,4.13
2023-02-15T07:17:44.037Z,4.16
2023-02-15T07:18:44.980Z,4.20
2023-02-15T07:19:43.989Z,4.19
2023-02-15T07:20:43.963Z,4.23
2023-02-15T07:21:43.988Z,4.17
2023-02-15T07:22:43.977Z,4.19
2023-02-15T07:23:43.930Z,4.20
2023-02-15T07:24:43.930Z,4.16
2023-02-15T07:25:43.921Z,4.23
2023-02-15T07:26:43.942Z,4.22
2023-02-15T07:27:43.893Z,4.22
2023-02-15T07:28:44.901Z,4.32
2023-02-15T07:29:43.898Z,4.35
2023-02-15T07:30:43.894Z,4.42
2023-02-15T07:31:43.875Z,4.38
2023-02-15T07:32:43.875Z,4.41
2023-02-15T07:33:43.829Z,4.52
2023-02-15T07:34:43.851Z,4.55
2023-02-15T07:35:43.830Z,4.63
2023-02-15T07:36:44.824Z,4.59
2023-02-15T07:37:43.786Z,4.67
2023-02-15T07:38:44.835Z,4.78
2023-02-15T07:39:44.757Z,4.89
2023-02-15T07:40:43.748Z,4.97
2023-02-15T07:41:43.765Z,5.05
2023-02-15T07:42:43.784Z,5.02
2023-02-15T07:43:43.720Z,4.97
2023-02-15T07:44:44.709Z,5.11
2023-02-15T07:45:44.705Z,5.11
2023-02-15T07:46:43.712Z,5.17
2023-02-15T07:47:43.715Z,5.23
2023-02-15T07:48:43.751Z,5.23
2023-02-15T07:49:43.708Z,5.30
2023-02-15T07:50:43.687Z,5.26
2023-02-15T07:51:43.633Z,5.33
2023-02-15T07:52:44.655Z,5.35
2023-02-15T07:53:43.618Z,5.39
2023-02-15T07:54:43.610Z,5.51
2023-02-15T07:55:43.608Z,5.59
2023-02-15T07:56:44.611Z,5.61
2023-02-15T07:57:43.592Z,5.72
2023-02-15T07:58:43.571Z,5.73
2023-02-15T07:59:44.541Z,5.73
2023-02-15T08:00:43.564Z,5.79
2023-02-15T08:01:44.541Z,5.83
2023-02-15T08:02:43.549Z,5.83
2023-02-15T08:03:43.550Z,5.90
2023-02-15T08:04:43.482Z,5.99
2023-02-15T08:05:44.513Z,5.97
2023-02-15T08:06:43.492Z,5.94
2023-02-15T08:07:43.447Z,6.01
2023-02-15T08:08:44.442Z,5.97
2023-02-15T08:09:43.453Z,6.04
2023-02-15T08:10:43.426Z,6.11
2023-02-15T08:11:43.439Z,6.07
2023-02-15T08:12:43.393Z,6.19
2023-02-15T08:13:43.394Z,6.14
2023-02-15T08:14:43.406Z,6.14
2023-02-15T08:15:43.400Z,6.14
2023-02-15T08:16:43.484Z,6.26
2023-02-15T08:17:44.376Z,6.24
2023-02-15T08:18:43.365Z,6.31
2023-02-15T08:19:43.358Z,6.24
2023-02-15T08:20:43.310Z,6.44
2023-02-15T08:21:43.344Z,6.41
2023-02-15T08:22:43.301Z,6.46
2023-02-15T08:23:43.302Z,6.54
2023-02-15T08:24:43.316Z,6.56
2023-02-15T08:25:43.263Z,6.54
2023-02-15T08:26:43.267Z,6.57
2023-02-15T08:27:43.322Z,6.63
2023-02-15T08:28:44.271Z,6.59
2023-02-15T08:29:43.381Z,6.62
2023-02-15T08:30:43.239Z,6.62
2023-02-15T08:31:43.331Z,6.62
2023-02-15T08:32:43.201Z,6.72
2023-02-15T08:33:44.214Z,6.67
2023-02-15T08:34:43.226Z,6.67
2023-02-15T08:35:43.208Z,6.81
2023-02-15T08:36:43.176Z,6.82
2023-02-15T08:37:43.152Z,6.78
2023-02-15T08:38:43.127Z,6.84
2023-02-15T08:39:44.148Z,6.85
2023-02-15T08:40:44.098Z,6.84
2023-02-15T08:41:43.107Z,6.81
2023-02-15T08:42:43.150Z,6.85
2023-02-15T08:43:43.063Z,6.85
2023-02-15T08:44:43.081Z,6.97
2023-02-15T08:45:43.090Z,7.02
2023-02-15T08:46:44.084Z,7.02
2023-02-15T08:47:43.050Z,7.03
2023-02-15T08:48:43.048Z,7.05
2023-02-15T08:49:43.011Z,6.97
2023-02-15T08:50:42.997Z,7.07
2023-02-15T08:51:43.994Z,7.03
2023-02-15T08:52:42.981Z,7.17
2023-02-15T08:53:43.954Z,7.18
2023-02-15T08:54:43.007Z,7.29
2023-02-15T08:55:42.954Z,7.25
2023-02-15T08:56:42.935Z,7.38
2023-02-15T08:57:42.910Z,7.32
2023-02-15T08:58:42.921Z,7.38
2023-02-15T08:59:42.923Z,7.33
2023-02-15T09:00:42.971Z,7.42
2023-02-15T09:01:43.885Z,7.48
2023-02-15T09:02:42.877Z,7.56
2023-02-15T09:03:42.896Z,7.57
2023-02-15T09:04:42.872Z,7.63
2023-02-15T09:05:42.854Z,7.70
2023-02-15T09:06:42.877Z,7.77
2023-02-15T09:07:43.896Z,7.83
2023-02-15T09:08:42.795Z,7.85
2023-02-15T09:09:43.809Z,7.94
2023-02-15T09:10:43.834Z,7.79
2023-02-15T09:11:42.793Z,7.82
2023-02-15T09:12:42.762Z,7.93
2023-02-15T09:13:43.828Z,7.87
2023-02-15T09:14:42.768Z,7.97
2023-02-15T09:15:42.737Z,7.94
2023-02-15T09:16:42.809Z,7.95
2023-02-15T09:17:42.710Z,8.01
2023-02-15T09:18:42.685Z,8.09
2023-02-15T09:19:42.744Z,8.05
2023-02-15T09:20:42.675Z,8.13
2023-02-15T09:21:42.697Z,8.16
2023-02-15T09:22:43.657Z,8.23
2023-02-15T09:23:43.673Z,8.20
2023-02-15T09:24:42.649Z,8.27
2023-02-15T09:25:42.648Z,8.45
2023-02-15T09:26:42.651Z,8.36
2023-02-15T09:27:42.609Z,8.37
2023-02-15T09:28:42.592Z,8.41
2023-02-15T09:29:42.592Z,8.41
2023-02-15T09:30:42.673Z,8.44
2023-02-15T09:31:43.635Z,8.56
2023-02-15T09:32:42.564Z,8.64
2023-02-15T09:33:43.538Z,8.63
2023-02-15T09:34:42.539Z,8.55
2023-02-15T09:35:42.513Z,8.70
2023-02-15T09:36:43.515Z,8.73
2023-02-15T09:37:42.504Z,8.69
2023-02-15T09:38:42.500Z,8.76
2023-02-15T09:39:42.508Z,8.79
2023-02-15T09:40:42.438Z,8.87
2023-02-15T09:41:42.441Z,8.92
2023-02-15T09:42:43.417Z,9.08
2023-02-15T09:43:43.529Z,9.14
2023-02-15T09:44:42.442Z,9.10
2023-02-15T09:45:42.495Z,9.19
2023-02-15T09:46:42.390Z,9.26
2023-02-15T09:47:42.376Z,9.32
2023-02-15T09:48:42.365Z,9.32
2023-02-15T09:49:42.367Z,9.28
2023-02-15T09:50:43.373Z,9.41
2023-02-15T09:51:42.339Z,9.43
2023-02-15T09:52:42.306Z,9.28
2023-02-15T09:53:42.373Z,9.34
2023-02-15T09:54:42.300Z,9.34
2023-02-15T09:55:43.342Z,9.40
2023-02-15T09:56:42.288Z,9.44
2023-02-15T09:57:42.273Z,9.44
2023-02-15T09:58:42.296Z,9.46
2023-02-15T09:59:42.247Z,9.46
2023-02-15T10:00:42.226Z,9.36
2023-02-15T10:01:42.322Z,9.44
2023-02-15T10:02:42.252Z,9.48
2023-02-15T10:03:42.232Z,9.59
2023-02-15T10:04:43.233Z,9.58
2023-02-15T10:05:42.167Z,9.58
2023-02-15T10:06:43.354Z,9.69
2023-02-15T10:07:42.172Z,9.69
2023-02-15T10:08:42.160Z,9.82
2023-02-15T10:09:42.135Z,9.91
2023-02-15T10:10:42.122Z,9.87
2023-02-15T10:11:42.148Z,9.87
2023-02-15T10:12:42.144Z,9.98
2023-02-15T10:13:42.097Z,9.87
2023-02-15T10:14:43.099Z,10.05
2023-02-15T10:15:42.073Z,10.04
2023-02-15T10:16:43.131Z,10.19
2023-02-15T10:17:42.056Z,10.16
2023-02-15T10:18:43.044Z,10.12
2023-02-15T10:19:43.063Z,10.26
2023-02-15T10:20:43.054Z,10.33
2023-02-15T10:21:42.040Z,10.28
2023-02-15T10:22:42.044Z,10.26
2023-02-15T10:23:43.086Z,10.30
2023-02-15T10:24:45.517Z,10.34
2023-02-15T10:25:42.964Z,10.17
2023-02-15T10:26:42.984Z,10.30
2023-02-15T10:27:42.981Z,10.30
2023-02-15T10:28:41.928Z,10.25
2023-02-15T10:29:41.924Z,10.30
2023-02-15T10:30:43.213Z,10.41
2023-02-15T10:31:43.006Z,10.31
2023-02-15T10:32:41.918Z,10.40
2023-02-15T10:33:41.859Z,10.51
2023-02-15T10:34:41.868Z,10.48
2023-02-15T10:35:41.851Z,10.48
2023-02-15T10:36:41.843Z,10.60
2023-02-15T10:37:41.857Z,10.53
2023-02-15T10:38:42.890Z,10.51
2023-02-15T10:39:42.828Z,10.53
2023-02-15T10:40:41.781Z,10.75
2023-02-15T10:41:41.800Z,10.74
2023-02-15T10:42:41.774Z,10.75
2023-02-15T10:43:41.796Z,10.69
2023-02-15T10:44:41.784Z,10.75
2023-02-15T10:45:41.775Z,10.90
2023-02-15T10:46:41.752Z,10.94
2023-02-15T10:47:41.741Z,10.90
2023-02-15T10:48:41.696Z,10.86
2023-02-15T10:49:41.703Z,10.94
2023-02-15T10:50:41.683Z,11.05
2023-02-15T10:51:42.743Z,11.08
2023-02-15T10:52:41.672Z,11.07
2023-02-15T10:53:41.676Z,11.15
2023-02-15T10:54:41.641Z,11.15
2023-02-15T10:55:41.636Z,11.14
2023-02-15T10:56:41.654Z,11.19
2023-02-15T10:57:41.679Z,11.25
2023-02-15T10:58:41.587Z,11.32
2023-02-15T10:59:41.616Z,11.26
2023-02-15T11:00:41.580Z,11.26
2023-02-15T11:01:41.683Z,11.36
2023-02-15T11:02:41.561Z,11.35
2023-02-15T11:03:42.662Z,11.19
2023-02-15T11:04:42.596Z,11.19
2023-02-15T11:05:42.519Z,11.30
2023-02-15T11:06:41.622Z,11.32
2023-02-15T11:07:41.516Z,11.32
2023-02-15T11:08:41.497Z,11.45
2023-02-15T11:09:41.485Z,11.51
2023-02-15T11:10:41.462Z,11.48
2023-02-15T11:11:41.477Z,11.52
2023-02-15T11:12:41.446Z,11.60
2023-02-15T11:13:41.577Z,11.66
2023-02-15T11:14:41.469Z,11.73
2023-02-15T11:15:41.507Z,11.63
2023-02-15T11:16:41.420Z,11.69
2023-02-15T11:17:41.403Z,11.72
2023-02-15T11:18:42.406Z,11.66
2023-02-15T11:19:41.393Z,11.66
2023-02-15T11:20:41.355Z,11.80
2023-02-15T11:21:41.365Z,11.81
2023-02-15T11:22:41.377Z,11.88
2023-02-15T11:23:41.429Z,11.66
2023-02-15T11:24:41.326Z,11.75
2023-02-15T11:25:41.322Z,11.83
2023-02-15T11:26:42.303Z,11.84
2023-02-15T11:27:41.352Z,11.84
2023-02-15T11:28:41.311Z,11.95
2023-02-15T11:29:42.309Z,12.02
2023-02-15T11:30:41.293Z,11.91
2023-02-15T11:31:41.440Z,11.91
2023-02-15T11:32:41.221Z,11.87
2023-02-15T11:33:41.358Z,11.84
2023-02-15T11:34:41.286Z,12.00
2023-02-15T11:35:42.220Z,11.95
2023-02-15T11:36:41.225Z,12.04
2023-02-15T11:37:42.173Z,12.07
2023-02-15T11:38:41.182Z,12.15
2023-02-15T11:39:41.197Z,12.13
2023-02-15T11:40:42.146Z,12.21
2023-02-15T11:41:41.125Z,12.18
2023-02-15T11:42:41.141Z,12.24
2023-02-15T11:43:41.247Z,12.31
2023-02-15T11:44:42.100Z,12.29
2023-02-15T11:45:41.099Z,12.32
2023-02-15T11:46:41.263Z,12.40
2023-02-15T11:47:42.184Z,12.37
2023-02-15T11:48:41.112Z,12.36
2023-02-15T11:49:41.071Z,12.43
2023-02-15T11:50:41.074Z,12.36
2023-02-15T11:51:41.048Z,12.39
2023-02-15T11:52:42.105Z,12.49
2023-02-15T11:53:41.089Z,12.50
2023-02-15T11:54:41.003Z,12.50
2023-02-15T11:55:40.982Z,12.47
2023-02-15T11:56:48.608Z,12.58
2023-02-15T11:57:40.963Z,12.39
2023-02-15T11:58:40.975Z,12.46
2023-02-15T11:59:40.945Z,12.45
2023-02-15T12:00:40.949Z,12.17
2023-02-15T12:01:40.918Z,12.12
2023-02-15T12:02:40.955Z,12.20
2023-02-15T12:03:41.027Z,12.31
2023-02-15T12:04:40.886Z,12.42
2023-02-15T12:05:40.871Z,12.37
2023-02-15T12:06:40.875Z,12.55
2023-02-15T12:07:40.858Z,12.40
2023-02-15T12:08:40.878Z,12.54
2023-02-15T12:09:40.839Z,12.57
2023-02-15T12:10:40.817Z,12.62
2023-02-15T12:11:40.819Z,12.61
2023-02-15T12:12:40.805Z,12.61
2023-02-15T12:13:40.851Z,12.67
2023-02-15T12:14:40.770Z,12.70
2023-02-15T12:15:40.785Z,12.72
2023-02-15T12:16:40.759Z,12.82
2023-02-15T12:17:40.746Z,12.67
2023-02-15T12:18:41.739Z,12.76
2023-02-15T12:19:40.812Z,12.70
2023-02-15T12:20:40.699Z,12.70
2023-02-15T12:21:41.709Z,12.73
2023-02-15T12:22:40.677Z,12.75
2023-02-15T12:23:40.762Z,12.73
2023-02-15T12:24:41.683Z,12.79
2023-02-15T12:25:40.654Z,12.87
2023-02-15T12:26:40.628Z,12.87
2023-02-15T12:27:40.632Z,12.87
2023-02-15T12:28:41.288Z,12.94
2023-02-15T12:29:40.620Z,12.87
2023-02-15T12:30:40.636Z,12.86
2023-02-15T12:31:40.718Z,12.85
2023-02-15T12:32:40.584Z,12.95
2023-02-15T12:33:40.555Z,13.00
2023-02-15T12:34:40.679Z,13.04
2023-02-15T12:35:40.583Z,13.05
2023-02-15T12:36:40.528Z,13.05
2023-02-15T12:37:40.546Z,13.04
2023-02-15T12:38:40.507Z,12.95
2023-02-15T12:39:40.590Z,13.08
2023-02-15T12:40:40.504Z,13.01
2023-02-15T12:41:41.455Z,12.91
2023-02-15T12:42:40.516Z,12.85
2023-02-15T12:43:41.433Z,12.82
2023-02-15T12:44:40.467Z,12.79
2023-02-15T12:45:41.447Z,12.86
2023-02-15T12:46:40.542Z,12.93
2023-02-15T12:47:41.406Z,12.87
2023-02-15T12:48:40.958Z,12.82
2023-02-15T12:49:40.500Z,13.00
2023-02-15T12:50:41.380Z,13.01
2023-02-15T12:51:43.191Z,13.00
2023-02-15T12:52:40.378Z,12.97
2023-02-15T12:53:40.342Z,13.00
2023-02-15T12:54:40.326Z,13.05
2023-02-15T12:55:45.355Z,12.98
2023-02-15T12:56:41.340Z,13.01
2023-02-15T12:57:41.340Z,13.09
2023-02-15T12:58:40.313Z,13.05
2023-02-15T12:59:40.321Z,12.94
2023-02-15T13:00:40.286Z,13.05
2023-02-15T13:01:40.323Z,13.05
2023-02-15T13:02:40.246Z,12.98
2023-02-15T13:03:40.376Z,13.08
2023-02-15T13:04:40.257Z,13.12
2023-02-15T13:05:40.198Z,13.12
2023-02-15T13:06:41.220Z,13.19
2023-02-15T13:07:40.217Z,13.19
2023-02-15T13:08:40.202Z,13.25
2023-02-15T13:09:41.306Z,13.20
2023-02-15T13:10:40.186Z,13.25
2023-02-15T13:11:40.208Z,13.35
2023-02-15T13:12:40.155Z,13.16